sensor_id;sensor_type;location;lat;lon;timestamp;temperature;humidity
44767;DHT22;30487;48.716;9.272;2024-03-17T00:01:50;9.80;99.90
44767;DHT22;30487;48.716;9.272;2024-03-17T00:04:15;9.80;99.90
44767;DHT22;30487;48.716;9.272;2024-03-17T00:06:41;9.80;99.90
44767;DHT22;30487;48.716;9.272;2024-03-17T00:09:06;9.80;99.90
44767;DHT22;30487;48.716;9.272;2024-03-17T00:11:35;9.80;99.90
44767;DHT22;30487;48.716;9.272;2024-03-17T00:14:01;9.80;99.90
44767;DHT22;30487;48.716;9.272;2024-03-17T00:16:27;9.80;99.90
44767;DHT22;30487;48.716;9.272;2024-03-17T00:18:53;9.80;99.90
44767;DHT22;30487;48.716;9.272;2024-03-17T00:21:18;9.80;99.90
44767;DHT22;30487;48.716;9.272;2024-03-17T00:23:48;9.80;99.90
44767;DHT22;30487;48.716;9.272;2024-03-17T00:26:15;9.70;99.90
44767;DHT22;30487;48.716;9.272;2024-03-17T00:28:41;9.80;99.90
44767;DHT22;30487;48.716;9.272;2024-03-17T00:31:07;9.80;99.90
44767;DHT22;30487;48.716;9.272;2024-03-17T00:33:35;9.80;99.90
44767;DHT22;30487;48.716;9.272;2024-03-17T00:36:01;9.70;99.90
44767;DHT22;30487;48.716;9.272;2024-03-17T00:38:26;9.70;99.90
44767;DHT22;30487;48.716;9.272;2024-03-17T00:40:52;9.70;99.90
44767;DHT22;30487;48.716;9.272;2024-03-17T00:43:17;9.70;99.90
44767;DHT22;30487;48.716;9.272;2024-03-17T00:45:43;9.70;99.90
44767;DHT22;30487;48.716;9.272;2024-03-17T00:48:08;9.60;99.90
44767;DHT22;30487;48.716;9.272;2024-03-17T00:50:35;9.50;99.90
44767;DHT22;30487;48.716;9.272;2024-03-17T00:53:00;9.60;99.90
44767;DHT22;30487;48.716;9.272;2024-03-17T00:55:28;9.60;99.90
44767;DHT22;30487;48.716;9.272;2024-03-17T00:57:54;9.60;99.90
44767;DHT22;30487;48.716;9.272;2024-03-17T01:00:20;9.70;99.90
44767;DHT22;30487;48.716;9.272;2024-03-17T01:02:45;9.60;99.90
44767;DHT22;30487;48.716;9.272;2024-03-17T01:05:11;9.60;99.90
44767;DHT22;30487;48.716;9.272;2024-03-17T01:07:37;9.60;99.90
44767;DHT22;30487;48.716;9.272;2024-03-17T01:10:02;9.70;99.90
44767;DHT22;30487;48.716;9.272;2024-03-17T01:12:28;9.70;99.90
44767;DHT22;30487;48.716;9.272;2024-03-17T01:14:54;9.60;99.90
44767;DHT22;30487;48.716;9.272;2024-03-17T01:17:20;9.60;99.90
44767;DHT22;30487;48.716;9.272;2024-03-17T01:19:45;9.60;99.90
44767;DHT22;30487;48.716;9.272;2024-03-17T01:22:11;9.60;99.90
44767;DHT22;30487;48.716;9.272;2024-03-17T01:24:37;9.60;99.90
44767;DHT22;30487;48.716;9.272;2024-03-17T01:27:05;9.60;99.90
44767;DHT22;30487;48.716;9.272;2024-03-17T01:29:31;9.60;99.90
44767;DHT22;30487;48.716;9.272;2024-03-17T01:31:57;9.60;99.90
44767;DHT22;30487;48.716;9.272;2024-03-17T01:34:23;9.60;99.90
44767;DHT22;30487;48.716;9.272;2024-03-17T01:36:48;9.50;99.90
44767;DHT22;30487;48.716;9.272;2024-03-17T01:39:14;9.60;99.90
44767;DHT22;30487;48.716;9.272;2024-03-17T01:41:41;9.60;99.90
44767;DHT22;30487;48.716;9.272;2024-03-17T01:44:07;9.50;99.90
44767;DHT22;30487;48.716;9.272;2024-03-17T01:46:33;9.60;99.90
44767;DHT22;30487;48.716;9.272;2024-03-17T01:48:59;9.60;99.90
44767;DHT22;30487;48.716;9.272;2024-03-17T01:51:24;9.60;99.90
44767;DHT22;30487;48.716;9.272;2024-03-17T01:53:50;9.60;99.90
44767;DHT22;30487;48.716;9.272;2024-03-17T01:56:16;9.60;99.90
44767;DHT22;30487;48.716;9.272;2024-03-17T01:58:44;9.60;99.90
44767;DHT22;30487;48.716;9.272;2024-03-17T02:01:11;9.60;99.90
44767;DHT22;30487;48.716;9.272;2024-03-17T02:03:40;9.60;99.90
44767;DHT22;30487;48.716;9.272;2024-03-17T02:06:05;9.60;99.90
44767;DHT22;30487;48.716;9.272;2024-03-17T02:08:55;9.70;99.90
44767;DHT22;30487;48.716;9.272;2024-03-17T02:11:27;9.70;99.90
44767;DHT22;30487;48.716;9.272;2024-03-17T02:13:55;9.70;99.90
44767;DHT22;30487;48.716;9.272;2024-03-17T02:16:21;9.70;99.90
44767;DHT22;30487;48.716;9.272;2024-03-17T02:18:47;9.70;99.90
44767;DHT22;30487;48.716;9.272;2024-03-17T02:21:15;9.70;99.90
44767;DHT22;30487;48.716;9.272;2024-03-17T02:23:44;9.60;99.90
44767;DHT22;30487;48.716;9.272;2024-03-17T02:26:10;9.60;99.90
44767;DHT22;30487;48.716;9.272;2024-03-17T02:28:42;9.60;99.90
44767;DHT22;30487;48.716;9.272;2024-03-17T02:31:10;9.60;99.90
44767;DHT22;30487;48.716;9.272;2024-03-17T02:33:36;9.60;99.90
44767;DHT22;30487;48.716;9.272;2024-03-17T02:36:03;9.60;99.90
44767;DHT22;30487;48.716;9.272;2024-03-17T02:38:33;9.60;99.90
44767;DHT22;30487;48.716;9.272;2024-03-17T02:41:17;9.60;99.90
44767;DHT22;30487;48.716;9.272;2024-03-17T02:43:44;9.60;99.90
44767;DHT22;30487;48.716;9.272;2024-03-17T02:46:18;9.50;99.90
44767;DHT22;30487;48.716;9.272;2024-03-17T02:48:44;9.50;99.90
44767;DHT22;30487;48.716;9.272;2024-03-17T02:51:13;9.50;99.90
44767;DHT22;30487;48.716;9.272;2024-03-17T02:53:46;9.50;99.90
44767;DHT22;30487;48.716;9.272;2024-03-17T02:56:12;9.50;99.90
44767;DHT22;30487;48.716;9.272;2024-03-17T02:58:39;9.50;99.90
44767;DHT22;30487;48.716;9.272;2024-03-17T03:01:05;9.40;99.90
44767;DHT22;30487;48.716;9.272;2024-03-17T03:03:32;9.40;99.90
44767;DHT22;30487;48.716;9.272;2024-03-17T03:05:58;9.50;99.90
44767;DHT22;30487;48.716;9.272;2024-03-17T03:08:26;9.40;99.90
44767;DHT22;30487;48.716;9.272;2024-03-17T03:10:52;9.40;99.90
44767;DHT22;30487;48.716;9.272;2024-03-17T03:13:17;9.40;99.90
44767;DHT22;30487;48.716;9.272;2024-03-17T03:15:43;9.30;99.90
44767;DHT22;30487;48.716;9.272;2024-03-17T03:18:09;9.40;99.90
44767;DHT22;30487;48.716;9.272;2024-03-17T03:20:34;9.40;99.90
44767;DHT22;30487;48.716;9.272;2024-03-17T03:23:01;9.30;99.90
44767;DHT22;30487;48.716;9.272;2024-03-17T03:25:28;9.40;99.90
44767;DHT22;30487;48.716;9.272;2024-03-17T03:27:53;9.30;99.90
44767;DHT22;30487;48.716;9.272;2024-03-17T03:30:21;9.30;99.90
44767;DHT22;30487;48.716;9.272;2024-03-17T03:32:47;9.20;99.90
44767;DHT22;30487;48.716;9.272;2024-03-17T03:35:13;9.20;99.90
44767;DHT22;30487;48.716;9.272;2024-03-17T03:37:40;9.20;99.90
44767;DHT22;30487;48.716;9.272;2024-03-17T03:40:06;9.20;99.90
44767;DHT22;30487;48.716;9.272;2024-03-17T03:42:45;9.20;99.90
44767;DHT22;30487;48.716;9.272;2024-03-17T03:45:10;9.20;99.90
44767;DHT22;30487;48.716;9.272;2024-03-17T03:47:41;9.10;99.90
44767;DHT22;30487;48.716;9.272;2024-03-17T03:50:11;9.10;99.90
44767;DHT22;30487;48.716;9.272;2024-03-17T03:52:37;9.10;99.90
44767;DHT22;30487;48.716;9.272;2024-03-17T03:55:04;9.10;99.90
44767;DHT22;30487;48.716;9.272;2024-03-17T03:57:30;9.10;99.90
44767;DHT22;30487;48.716;9.272;2024-03-17T03:59:57;9.10;99.90
44767;DHT22;30487;48.716;9.272;2024-03-17T04:02:23;9.10;99.90
44767;DHT22;30487;48.716;9.272;2024-03-17T04:04:50;9.00;99.90
44767;DHT22;30487;48.716;9.272;2024-03-17T04:07:16;9.00;99.90
44767;DHT22;30487;48.716;9.272;2024-03-17T04:09:42;9.00;99.90
44767;DHT22;30487;48.716;9.272;2024-03-17T04:12:07;9.00;99.90
44767;DHT22;30487;48.716;9.272;2024-03-17T04:14:33;9.00;99.90
44767;DHT22;30487;48.716;9.272;2024-03-17T04:16:59;8.90;99.90
44767;DHT22;30487;48.716;9.272;2024-03-17T04:19:24;9.00;99.90
44767;DHT22;30487;48.716;9.272;2024-03-17T04:21:51;9.00;99.90
44767;DHT22;30487;48.716;9.272;2024-03-17T04:24:16;9.00;99.90
44767;DHT22;30487;48.716;9.272;2024-03-17T04:26:42;9.00;99.90
44767;DHT22;30487;48.716;9.272;2024-03-17T04:29:08;9.00;99.90
44767;DHT22;30487;48.716;9.272;2024-03-17T04:31:34;9.00;99.90
44767;DHT22;30487;48.716;9.272;2024-03-17T04:33:59;9.00;99.90
44767;DHT22;30487;48.716;9.272;2024-03-17T04:36:25;9.00;99.90
44767;DHT22;30487;48.716;9.272;2024-03-17T04:38:50;9.00;99.90
44767;DHT22;30487;48.716;9.272;2024-03-17T04:41:19;9.00;99.90
44767;DHT22;30487;48.716;9.272;2024-03-17T04:43:44;9.00;99.90
44767;DHT22;30487;48.716;9.272;2024-03-17T04:46:10;9.00;99.90
44767;DHT22;30487;48.716;9.272;2024-03-17T04:48:37;9.00;99.90
44767;DHT22;30487;48.716;9.272;2024-03-17T04:51:03;9.00;99.90
44767;DHT22;30487;48.716;9.272;2024-03-17T04:53:29;9.00;99.90
44767;DHT22;30487;48.716;9.272;2024-03-17T04:56:02;8.90;99.90
44767;DHT22;30487;48.716;9.272;2024-03-17T04:58:28;8.90;99.90
44767;DHT22;30487;48.716;9.272;2024-03-17T05:00:54;8.90;99.90
44767;DHT22;30487;48.716;9.272;2024-03-17T05:03:19;8.90;99.90
44767;DHT22;30487;48.716;9.272;2024-03-17T05:05:45;8.90;99.90
44767;DHT22;30487;48.716;9.272;2024-03-17T05:08:10;8.90;99.90
44767;DHT22;30487;48.716;9.272;2024-03-17T05:10:36;8.90;99.90
44767;DHT22;30487;48.716;9.272;2024-03-17T05:13:02;8.90;99.90
44767;DHT22;30487;48.716;9.272;2024-03-17T05:15:28;8.80;99.90
44767;DHT22;30487;48.716;9.272;2024-03-17T05:17:54;8.80;99.90
44767;DHT22;30487;48.716;9.272;2024-03-17T05:20:19;8.80;99.90
44767;DHT22;30487;48.716;9.272;2024-03-17T05:22:49;8.80;99.90
44767;DHT22;30487;48.716;9.272;2024-03-17T05:25:14;8.80;99.90
44767;DHT22;30487;48.716;9.272;2024-03-17T05:27:40;8.70;99.90
44767;DHT22;30487;48.716;9.272;2024-03-17T05:30:06;8.70;99.90
44767;DHT22;30487;48.716;9.272;2024-03-17T05:32:34;8.70;99.90
44767;DHT22;30487;48.716;9.272;2024-03-17T05:34:59;8.70;99.90
44767;DHT22;30487;48.716;9.272;2024-03-17T05:37:25;8.70;99.90
44767;DHT22;30487;48.716;9.272;2024-03-17T05:39:50;8.70;99.90
44767;DHT22;30487;48.716;9.272;2024-03-17T05:42:16;8.80;99.90
44767;DHT22;30487;48.716;9.272;2024-03-17T05:44:41;8.80;99.90
44767;DHT22;30487;48.716;9.272;2024-03-17T05:47:17;8.80;99.90
44767;DHT22;30487;48.716;9.272;2024-03-17T05:49:43;8.70;99.90
44767;DHT22;30487;48.716;9.272;2024-03-17T05:52:09;8.70;99.90
44767;DHT22;30487;48.716;9.272;2024-03-17T05:54:34;8.70;99.90
44767;DHT22;30487;48.716;9.272;2024-03-17T05:57:00;8.70;99.90
44767;DHT22;30487;48.716;9.272;2024-03-17T05:59:25;8.70;99.90
44767;DHT22;30487;48.716;9.272;2024-03-17T06:01:51;8.70;99.90
44767;DHT22;30487;48.716;9.272;2024-03-17T06:04:16;8.70;99.90
44767;DHT22;30487;48.716;9.272;2024-03-17T06:06:42;8.80;99.90
44767;DHT22;30487;48.716;9.272;2024-03-17T06:09:08;8.80;99.90
44767;DHT22;30487;48.716;9.272;2024-03-17T06:11:34;8.80;99.90
44767;DHT22;30487;48.716;9.272;2024-03-17T06:14:00;8.80;99.90
44767;DHT22;30487;48.716;9.272;2024-03-17T06:16:30;8.80;99.90
44767;DHT22;30487;48.716;9.272;2024-03-17T06:18:56;8.90;99.90
44767;DHT22;30487;48.716;9.272;2024-03-17T06:21:22;8.90;99.90
44767;DHT22;30487;48.716;9.272;2024-03-17T06:23:47;9.00;99.90
44767;DHT22;30487;48.716;9.272;2024-03-17T06:26:13;9.00;99.90
44767;DHT22;30487;48.716;9.272;2024-03-17T06:28:38;9.10;99.90
44767;DHT22;30487;48.716;9.272;2024-03-17T06:31:04;9.10;99.90
44767;DHT22;30487;48.716;9.272;2024-03-17T06:33:32;9.20;99.90
44767;DHT22;30487;48.716;9.272;2024-03-17T06:36:01;9.30;99.90
44767;DHT22;30487;48.716;9.272;2024-03-17T06:38:29;9.50;99.90
44767;DHT22;30487;48.716;9.272;2024-03-17T06:40:55;9.70;99.90
44767;DHT22;30487;48.716;9.272;2024-03-17T06:43:20;9.80;99.90
44767;DHT22;30487;48.716;9.272;2024-03-17T06:46:00;9.80;99.90
44767;DHT22;30487;48.716;9.272;2024-03-17T06:48:26;9.90;99.90
44767;DHT22;30487;48.716;9.272;2024-03-17T06:50:53;9.90;99.90
44767;DHT22;30487;48.716;9.272;2024-03-17T06:53:23;10.00;99.90
44767;DHT22;30487;48.716;9.272;2024-03-17T06:55:55;10.10;99.90
44767;DHT22;30487;48.716;9.272;2024-03-17T06:58:22;10.30;99.90
44767;DHT22;30487;48.716;9.272;2024-03-17T07:00:59;10.60;99.90
44767;DHT22;30487;48.716;9.272;2024-03-17T07:03:26;10.80;99.90
44767;DHT22;30487;48.716;9.272;2024-03-17T07:05:59;11.20;99.90
44767;DHT22;30487;48.716;9.272;2024-03-17T07:08:27;11.40;99.90
44767;DHT22;30487;48.716;9.272;2024-03-17T07:11:05;11.70;99.90
44767;DHT22;30487;48.716;9.272;2024-03-17T07:13:33;11.90;99.90
44767;DHT22;30487;48.716;9.272;2024-03-17T07:16:00;12.10;99.90
44767;DHT22;30487;48.716;9.272;2024-03-17T07:18:27;12.20;99.90
44767;DHT22;30487;48.716;9.272;2024-03-17T07:20:56;12.30;99.90
44767;DHT22;30487;48.716;9.272;2024-03-17T07:23:21;12.20;99.90
44767;DHT22;30487;48.716;9.272;2024-03-17T07:25:54;12.10;99.90
44767;DHT22;30487;48.716;9.272;2024-03-17T07:28:20;12.00;99.90
44767;DHT22;30487;48.716;9.272;2024-03-17T07:30:54;11.80;99.90
44767;DHT22;30487;48.716;9.272;2024-03-17T07:33:20;11.80;99.90
44767;DHT22;30487;48.716;9.272;2024-03-17T07:38:17;11.90;99.90
44767;DHT22;30487;48.716;9.272;2024-03-17T07:40:44;12.00;99.90
44767;DHT22;30487;48.716;9.272;2024-03-17T07:43:10;12.10;99.90
44767;DHT22;30487;48.716;9.272;2024-03-17T07:45:36;12.20;99.90
44767;DHT22;30487;48.716;9.272;2024-03-17T07:48:02;12.50;99.90
44767;DHT22;30487;48.716;9.272;2024-03-17T07:50:27;12.80;99.90
44767;DHT22;30487;48.716;9.272;2024-03-17T07:52:53;13.00;99.90
44767;DHT22;30487;48.716;9.272;2024-03-17T07:55:18;13.20;99.90
44767;DHT22;30487;48.716;9.272;2024-03-17T07:57:44;13.60;99.90
44767;DHT22;30487;48.716;9.272;2024-03-17T08:00:10;13.90;99.90
44767;DHT22;30487;48.716;9.272;2024-03-17T08:02:49;14.00;99.90
44767;DHT22;30487;48.716;9.272;2024-03-17T08:05:15;13.90;99.90
44767;DHT22;30487;48.716;9.272;2024-03-17T08:07:40;14.00;99.90
44767;DHT22;30487;48.716;9.272;2024-03-17T08:10:10;14.10;99.90
44767;DHT22;30487;48.716;9.272;2024-03-17T08:12:35;14.10;99.90
44767;DHT22;30487;48.716;9.272;2024-03-17T08:15:01;14.00;99.90
44767;DHT22;30487;48.716;9.272;2024-03-17T08:17:27;13.90;99.90
44767;DHT22;30487;48.716;9.272;2024-03-17T08:19:52;13.90;99.90
44767;DHT22;30487;48.716;9.272;2024-03-17T08:22:19;14.20;99.90
44767;DHT22;30487;48.716;9.272;2024-03-17T08:24:44;14.10;99.90
44767;DHT22;30487;48.716;9.272;2024-03-17T08:27:10;14.00;99.90
44767;DHT22;30487;48.716;9.272;2024-03-17T08:29:35;13.90;99.90
44767;DHT22;30487;48.716;9.272;2024-03-17T08:32:01;13.80;99.90
44767;DHT22;30487;48.716;9.272;2024-03-17T08:34:26;13.80;99.90
44767;DHT22;30487;48.716;9.272;2024-03-17T08:36:52;13.80;99.90
44767;DHT22;30487;48.716;9.272;2024-03-17T08:39:18;13.80;99.90
44767;DHT22;30487;48.716;9.272;2024-03-17T08:41:44;13.90;99.90
44767;DHT22;30487;48.716;9.272;2024-03-17T08:44:11;14.00;99.90
44767;DHT22;30487;48.716;9.272;2024-03-17T08:46:36;14.10;99.90
44767;DHT22;30487;48.716;9.272;2024-03-17T08:49:02;14.20;99.90
44767;DHT22;30487;48.716;9.272;2024-03-17T08:51:28;14.50;99.90
44767;DHT22;30487;48.716;9.272;2024-03-17T08:53:54;14.70;99.90
44767;DHT22;30487;48.716;9.272;2024-03-17T08:56:20;15.20;99.90
44767;DHT22;30487;48.716;9.272;2024-03-17T08:58:48;15.80;99.90
44767;DHT22;30487;48.716;9.272;2024-03-17T09:01:15;16.40;99.90
44767;DHT22;30487;48.716;9.272;2024-03-17T09:03:41;16.80;99.90
44767;DHT22;30487;48.716;9.272;2024-03-17T09:06:17;17.00;99.90
44767;DHT22;30487;48.716;9.272;2024-03-17T09:08:45;17.20;99.90
44767;DHT22;30487;48.716;9.272;2024-03-17T09:11:12;17.20;99.90
44767;DHT22;30487;48.716;9.272;2024-03-17T09:13:38;17.30;99.90
44767;DHT22;30487;48.716;9.272;2024-03-17T09:16:04;17.40;99.90
44767;DHT22;30487;48.716;9.272;2024-03-17T09:18:31;17.60;99.90
44767;DHT22;30487;48.716;9.272;2024-03-17T09:21:06;17.80;99.90
44767;DHT22;30487;48.716;9.272;2024-03-17T09:23:39;17.80;99.90
44767;DHT22;30487;48.716;9.272;2024-03-17T09:26:06;17.80;99.90
44767;DHT22;30487;48.716;9.272;2024-03-17T09:28:35;17.80;99.90
44767;DHT22;30487;48.716;9.272;2024-03-17T09:31:00;17.90;99.90
44767;DHT22;30487;48.716;9.272;2024-03-17T09:33:28;17.90;99.90
44767;DHT22;30487;48.716;9.272;2024-03-17T09:36:05;18.00;99.90
44767;DHT22;30487;48.716;9.272;2024-03-17T09:38:34;18.00;99.30
44767;DHT22;30487;48.716;9.272;2024-03-17T09:41:01;18.00;99.90
44767;DHT22;30487;48.716;9.272;2024-03-17T09:43:34;18.10;99.70
44767;DHT22;30487;48.716;9.272;2024-03-17T09:46:02;18.20;98.70
44767;DHT22;30487;48.716;9.272;2024-03-17T09:48:29;18.00;98.90
44767;DHT22;30487;48.716;9.272;2024-03-17T09:51:03;17.90;97.60
44767;DHT22;30487;48.716;9.272;2024-03-17T09:53:30;17.70;96.80
44767;DHT22;30487;48.716;9.272;2024-03-17T09:55:59;17.60;96.90
44767;DHT22;30487;48.716;9.272;2024-03-17T09:58:26;17.50;98.40
44767;DHT22;30487;48.716;9.272;2024-03-17T10:00:51;17.40;97.30
44767;DHT22;30487;48.716;9.272;2024-03-17T10:06:14;16.90;96.70
44767;DHT22;30487;48.716;9.272;2024-03-17T10:11:18;16.50;97.60
44767;DHT22;30487;48.716;9.272;2024-03-17T10:13:45;16.70;98.30
44767;DHT22;30487;48.716;9.272;2024-03-17T10:16:24;17.10;98.20
44767;DHT22;30487;48.716;9.272;2024-03-17T10:19:04;17.40;97.20
44767;DHT22;30487;48.716;9.272;2024-03-17T10:21:31;17.60;96.40
44767;DHT22;30487;48.716;9.272;2024-03-17T10:24:11;17.70;96.80
44767;DHT22;30487;48.716;9.272;2024-03-17T10:27:01;17.70;95.80
44767;DHT22;30487;48.716;9.272;2024-03-17T10:31:57;17.40;94.90
44767;DHT22;30487;48.716;9.272;2024-03-17T10:34:25;17.30;95.60
44767;DHT22;30487;48.716;9.272;2024-03-17T10:36:51;17.30;94.60
44767;DHT22;30487;48.716;9.272;2024-03-17T10:39:27;17.50;95.30
44767;DHT22;30487;48.716;9.272;2024-03-17T10:41:57;17.70;94.70
44767;DHT22;30487;48.716;9.272;2024-03-17T10:44:25;17.70;94.40
44767;DHT22;30487;48.716;9.272;2024-03-17T10:46:54;18.00;94.20
44767;DHT22;30487;48.716;9.272;2024-03-17T10:49:21;18.30;94.20
44767;DHT22;30487;48.716;9.272;2024-03-17T10:51:51;18.60;93.30
44767;DHT22;30487;48.716;9.272;2024-03-17T10:54:24;18.80;93.10
44767;DHT22;30487;48.716;9.272;2024-03-17T10:57:00;18.90;93.10
44767;DHT22;30487;48.716;9.272;2024-03-17T10:59:39;19.00;92.20
44767;DHT22;30487;48.716;9.272;2024-03-17T11:02:21;18.50;91.10
44767;DHT22;30487;48.716;9.272;2024-03-17T11:07:46;18.20;93.30
44767;DHT22;30487;48.716;9.272;2024-03-17T11:12:51;17.60;93.10
44767;DHT22;30487;48.716;9.272;2024-03-17T11:17:53;17.60;93.70
44767;DHT22;30487;48.716;9.272;2024-03-17T11:20:24;18.00;94.10
44767;DHT22;30487;48.716;9.272;2024-03-17T11:23:00;18.60;92.70
44767;DHT22;30487;48.716;9.272;2024-03-17T11:27:53;19.30;91.40
44767;DHT22;30487;48.716;9.272;2024-03-17T11:39:14;19.20;91.70
44767;DHT22;30487;48.716;9.272;2024-03-17T11:41:47;19.50;91.30
44767;DHT22;30487;48.716;9.272;2024-03-17T11:46:57;20.10;87.80
44767;DHT22;30487;48.716;9.272;2024-03-17T11:49:32;20.30;87.80
44767;DHT22;30487;48.716;9.272;2024-03-17T11:52:09;20.20;86.50
44767;DHT22;30487;48.716;9.272;2024-03-17T11:54:39;20.20;86.60
44767;DHT22;30487;48.716;9.272;2024-03-17T11:59:38;19.20;89.80
44767;DHT22;30487;48.716;9.272;2024-03-17T12:02:30;19.10;89.30
44767;DHT22;30487;48.716;9.272;2024-03-17T12:05:06;19.60;88.50
44767;DHT22;30487;48.716;9.272;2024-03-17T12:07:42;19.60;87.90
44767;DHT22;30487;48.716;9.272;2024-03-17T12:10:10;19.50;87.40
44767;DHT22;30487;48.716;9.272;2024-03-17T12:12:36;19.10;88.00
44767;DHT22;30487;48.716;9.272;2024-03-17T12:15:03;18.90;89.60
44767;DHT22;30487;48.716;9.272;2024-03-17T12:17:31;18.80;88.90
44767;DHT22;30487;48.716;9.272;2024-03-17T12:19:56;18.70;89.90
44767;DHT22;30487;48.716;9.272;2024-03-17T12:22:25;18.60;89.60
44767;DHT22;30487;48.716;9.272;2024-03-17T12:24:58;18.60;89.20
44767;DHT22;30487;48.716;9.272;2024-03-17T12:27:26;18.40;89.00
44767;DHT22;30487;48.716;9.272;2024-03-17T12:29:54;18.20;90.10
44767;DHT22;30487;48.716;9.272;2024-03-17T12:32:24;17.90;90.50
44767;DHT22;30487;48.716;9.272;2024-03-17T12:34:52;17.40;90.90
44767;DHT22;30487;48.716;9.272;2024-03-17T12:37:20;17.00;91.20
44767;DHT22;30487;48.716;9.272;2024-03-17T12:39:46;16.80;91.70
44767;DHT22;30487;48.716;9.272;2024-03-17T12:42:16;16.70;92.20
44767;DHT22;30487;48.716;9.272;2024-03-17T12:44:55;16.50;92.10
44767;DHT22;30487;48.716;9.272;2024-03-17T12:47:22;16.40;92.00
44767;DHT22;30487;48.716;9.272;2024-03-17T12:49:49;16.30;92.20
44767;DHT22;30487;48.716;9.272;2024-03-17T12:52:22;16.20;92.30
44767;DHT22;30487;48.716;9.272;2024-03-17T12:55:07;15.80;92.40
44767;DHT22;30487;48.716;9.272;2024-03-17T13:01:02;15.70;93.70
44767;DHT22;30487;48.716;9.272;2024-03-17T13:05:57;15.90;93.30
44767;DHT22;30487;48.716;9.272;2024-03-17T13:08:23;15.90;93.20
44767;DHT22;30487;48.716;9.272;2024-03-17T13:10:48;16.00;93.10
44767;DHT22;30487;48.716;9.272;2024-03-17T13:13:15;16.10;93.10
44767;DHT22;30487;48.716;9.272;2024-03-17T13:15:42;16.10;92.40
44767;DHT22;30487;48.716;9.272;2024-03-17T13:18:08;16.10;92.80
44767;DHT22;30487;48.716;9.272;2024-03-17T13:20:34;16.00;92.40
44767;DHT22;30487;48.716;9.272;2024-03-17T13:23:00;15.90;92.70
44767;DHT22;30487;48.716;9.272;2024-03-17T13:25:28;15.90;92.30
44767;DHT22;30487;48.716;9.272;2024-03-17T13:27:58;15.80;92.70
44767;DHT22;30487;48.716;9.272;2024-03-17T13:30:24;15.60;92.50
44767;DHT22;30487;48.716;9.272;2024-03-17T13:32:52;15.60;92.80
44767;DHT22;30487;48.716;9.272;2024-03-17T13:35:25;15.60;92.30
44767;DHT22;30487;48.716;9.272;2024-03-17T13:37:52;15.50;91.80
44767;DHT22;30487;48.716;9.272;2024-03-17T13:40:20;15.40;91.90
44767;DHT22;30487;48.716;9.272;2024-03-17T13:42:46;15.40;92.30
44767;DHT22;30487;48.716;9.272;2024-03-17T13:45:16;15.30;92.00
44767;DHT22;30487;48.716;9.272;2024-03-17T13:47:46;15.40;91.80
44767;DHT22;30487;48.716;9.272;2024-03-17T13:50:12;15.40;91.80
44767;DHT22;30487;48.716;9.272;2024-03-17T13:52:41;15.50;91.70
44767;DHT22;30487;48.716;9.272;2024-03-17T13:55:19;15.60;92.30
44767;DHT22;30487;48.716;9.272;2024-03-17T13:57:58;15.70;92.10
44767;DHT22;30487;48.716;9.272;2024-03-17T14:00:41;15.70;91.60
44767;DHT22;30487;48.716;9.272;2024-03-17T14:03:08;15.70;91.70
44767;DHT22;30487;48.716;9.272;2024-03-17T14:05:35;15.70;92.30
44767;DHT22;30487;48.716;9.272;2024-03-17T14:08:01;15.60;92.80
44767;DHT22;30487;48.716;9.272;2024-03-17T14:10:27;15.70;92.80
44767;DHT22;30487;48.716;9.272;2024-03-17T14:12:53;15.60;92.40
44767;DHT22;30487;48.716;9.272;2024-03-17T14:15:19;15.40;92.10
44767;DHT22;30487;48.716;9.272;2024-03-17T14:17:45;15.40;92.90
44767;DHT22;30487;48.716;9.272;2024-03-17T14:20:13;15.40;93.50
44767;DHT22;30487;48.716;9.272;2024-03-17T14:22:41;15.70;93.60
44767;DHT22;30487;48.716;9.272;2024-03-17T14:25:15;16.00;92.20
44767;DHT22;30487;48.716;9.272;2024-03-17T14:27:41;16.30;91.30
44767;DHT22;30487;48.716;9.272;2024-03-17T14:30:07;16.40;91.10
44767;DHT22;30487;48.716;9.272;2024-03-17T14:32:33;16.60;91.50
44767;DHT22;30487;48.716;9.272;2024-03-17T14:34:58;16.70;91.10
44767;DHT22;30487;48.716;9.272;2024-03-17T14:37:25;16.30;90.60
44767;DHT22;30487;48.716;9.272;2024-03-17T14:39:51;16.30;90.80
44767;DHT22;30487;48.716;9.272;2024-03-17T14:42:17;16.10;91.30
44767;DHT22;30487;48.716;9.272;2024-03-17T14:44:42;16.40;91.10
44767;DHT22;30487;48.716;9.272;2024-03-17T14:47:08;16.60;91.30
44767;DHT22;30487;48.716;9.272;2024-03-17T14:49:35;16.50;91.20
44767;DHT22;30487;48.716;9.272;2024-03-17T14:52:01;16.50;91.20
44767;DHT22;30487;48.716;9.272;2024-03-17T14:54:27;16.60;91.30
44767;DHT22;30487;48.716;9.272;2024-03-17T14:56:52;16.30;90.90
44767;DHT22;30487;48.716;9.272;2024-03-17T14:59:21;16.40;91.30
44767;DHT22;30487;48.716;9.272;2024-03-17T15:01:46;16.30;91.60
44767;DHT22;30487;48.716;9.272;2024-03-17T15:04:15;16.20;91.70
44767;DHT22;30487;48.716;9.272;2024-03-17T15:06:41;16.20;92.60
44767;DHT22;30487;48.716;9.272;2024-03-17T15:09:08;16.10;93.40
44767;DHT22;30487;48.716;9.272;2024-03-17T15:11:34;16.50;93.40
44767;DHT22;30487;48.716;9.272;2024-03-17T15:14:00;16.70;93.60
44767;DHT22;30487;48.716;9.272;2024-03-17T15:16:26;16.80;92.70
44767;DHT22;30487;48.716;9.272;2024-03-17T15:18:51;16.40;92.20
44767;DHT22;30487;48.716;9.272;2024-03-17T15:21:17;16.20;92.30
44767;DHT22;30487;48.716;9.272;2024-03-17T15:23:42;16.00;93.30
44767;DHT22;30487;48.716;9.272;2024-03-17T15:26:08;16.00;93.00
44767;DHT22;30487;48.716;9.272;2024-03-17T15:28:39;15.80;93.50
44767;DHT22;30487;48.716;9.272;2024-03-17T15:31:05;15.60;93.50
44767;DHT22;30487;48.716;9.272;2024-03-17T15:33:35;15.40;93.70
44767;DHT22;30487;48.716;9.272;2024-03-17T15:36:03;15.50;94.70
44767;DHT22;30487;48.716;9.272;2024-03-17T15:38:32;15.60;94.70
44767;DHT22;30487;48.716;9.272;2024-03-17T15:41:06;15.70;95.20
44767;DHT22;30487;48.716;9.272;2024-03-17T15:43:36;15.80;94.90
44767;DHT22;30487;48.716;9.272;2024-03-17T15:46:19;15.90;94.10
44767;DHT22;30487;48.716;9.272;2024-03-17T15:48:45;15.90;93.60
44767;DHT22;30487;48.716;9.272;2024-03-17T15:51:11;15.90;93.50
44767;DHT22;30487;48.716;9.272;2024-03-17T15:53:37;15.80;93.30
44767;DHT22;30487;48.716;9.272;2024-03-17T15:56:04;15.80;93.60
44767;DHT22;30487;48.716;9.272;2024-03-17T15:58:30;15.70;94.40
44767;DHT22;30487;48.716;9.272;2024-03-17T16:00:57;15.60;94.50
44767;DHT22;30487;48.716;9.272;2024-03-17T16:03:30;15.50;94.70
44767;DHT22;30487;48.716;9.272;2024-03-17T16:05:59;15.30;94.50
44767;DHT22;30487;48.716;9.272;2024-03-17T16:08:27;15.30;95.30
44767;DHT22;30487;48.716;9.272;2024-03-17T16:10:56;15.30;94.90
44767;DHT22;30487;48.716;9.272;2024-03-17T16:13:23;15.20;95.00
44767;DHT22;30487;48.716;9.272;2024-03-17T16:15:49;15.10;94.60
44767;DHT22;30487;48.716;9.272;2024-03-17T16:18:18;15.00;95.40
44767;DHT22;30487;48.716;9.272;2024-03-17T16:23:17;14.80;95.50
44767;DHT22;30487;48.716;9.272;2024-03-17T16:25:45;14.80;95.70